sensor_id;sensor_type;location;lat;lon;timestamp;temperature;humidity
59857;DHT22;45733;52.668;6.860;2023-10-08T00:00:49;16.40;99.90
59857;DHT22;45733;52.668;6.860;2023-10-08T00:03:16;16.30;99.90
59857;DHT22;45733;52.668;6.860;2023-10-08T00:05:43;16.10;99.90
59857;DHT22;45733;52.668;6.860;2023-10-08T00:08:09;16.10;99.90
59857;DHT22;45733;52.668;6.860;2023-10-08T00:10:39;15.80;99.90
59857;DHT22;45733;52.668;6.860;2023-10-08T00:13:15;15.60;99.90
59857;DHT22;45733;52.668;6.860;2023-10-08T00:15:43;15.50;99.90
59857;DHT22;45733;52.668;6.860;2023-10-08T00:18:44;15.40;99.90
59857;DHT22;45733;52.668;6.860;2023-10-08T00:21:17;15.20;99.90
59857;DHT22;45733;52.668;6.860;2023-10-08T00:23:51;15.20;99.90
59857;DHT22;45733;52.668;6.860;2023-10-08T00:26:27;15.20;99.90
59857;DHT22;45733;52.668;6.860;2023-10-08T00:29:08;15.40;99.90
59857;DHT22;45733;52.668;6.860;2023-10-08T00:31:47;15.00;99.90
59857;DHT22;45733;52.668;6.860;2023-10-08T00:34:15;15.10;99.90
59857;DHT22;45733;52.668;6.860;2023-10-08T00:36:44;15.10;99.90
59857;DHT22;45733;52.668;6.860;2023-10-08T00:39:15;15.20;99.90
59857;DHT22;45733;52.668;6.860;2023-10-08T00:41:54;15.00;99.90
59857;DHT22;45733;52.668;6.860;2023-10-08T00:44:27;15.20;99.90
59857;DHT22;45733;52.668;6.860;2023-10-08T00:46:57;15.10;99.90
59857;DHT22;45733;52.668;6.860;2023-10-08T00:49:32;14.80;99.90
59857;DHT22;45733;52.668;6.860;2023-10-08T00:52:28;14.80;99.90
59857;DHT22;45733;52.668;6.860;2023-10-08T00:54:59;14.90;99.90
59857;DHT22;45733;52.668;6.860;2023-10-08T00:58:01;14.70;99.90
59857;DHT22;45733;52.668;6.860;2023-10-08T01:00:55;14.70;99.90
59857;DHT22;45733;52.668;6.860;2023-10-08T01:03:31;14.90;99.90
59857;DHT22;45733;52.668;6.860;2023-10-08T01:06:07;14.90;99.90
59857;DHT22;45733;52.668;6.860;2023-10-08T01:09:24;14.70;99.90
59857;DHT22;45733;52.668;6.860;2023-10-08T01:14:54;14.50;99.90
59857;DHT22;45733;52.668;6.860;2023-10-08T01:17:21;14.40;99.90
59857;DHT22;45733;52.668;6.860;2023-10-08T01:20:09;14.20;99.90
59857;DHT22;45733;52.668;6.860;2023-10-08T01:23:11;14.50;99.90
59857;DHT22;45733;52.668;6.860;2023-10-08T01:26:03;14.10;99.90
59857;DHT22;45733;52.668;6.860;2023-10-08T01:28:42;14.40;99.90
59857;DHT22;45733;52.668;6.860;2023-10-08T01:31:14;14.50;99.90
59857;DHT22;45733;52.668;6.860;2023-10-08T01:37:22;14.50;99.90
59857;DHT22;45733;52.668;6.860;2023-10-08T01:39:57;14.70;99.90
59857;DHT22;45733;52.668;6.860;2023-10-08T01:42:36;14.30;99.90
59857;DHT22;45733;52.668;6.860;2023-10-08T01:45:10;14.30;99.90
59857;DHT22;45733;52.668;6.860;2023-10-08T01:47:48;14.40;99.90
59857;DHT22;45733;52.668;6.860;2023-10-08T01:50:19;14.50;99.90
59857;DHT22;45733;52.668;6.860;2023-10-08T01:53:11;14.20;99.90
59857;DHT22;45733;52.668;6.860;2023-10-08T01:55:39;14.50;99.90
59857;DHT22;45733;52.668;6.860;2023-10-08T01:58:21;14.70;99.90
59857;DHT22;45733;52.668;6.860;2023-10-08T02:01:20;14.50;99.90
59857;DHT22;45733;52.668;6.860;2023-10-08T02:04:08;14.30;99.90
59857;DHT22;45733;52.668;6.860;2023-10-08T02:09:42;14.60;99.90
59857;DHT22;45733;52.668;6.860;2023-10-08T02:12:16;14.30;99.90
59857;DHT22;45733;52.668;6.860;2023-10-08T02:14:54;14.60;99.90
59857;DHT22;45733;52.668;6.860;2023-10-08T02:17:28;14.40;99.90
59857;DHT22;45733;52.668;6.860;2023-10-08T02:19:57;14.20;99.90
59857;DHT22;45733;52.668;6.860;2023-10-08T02:22:26;14.20;99.90
59857;DHT22;45733;52.668;6.860;2023-10-08T02:24:57;14.40;99.90
59857;DHT22;45733;52.668;6.860;2023-10-08T02:27:38;14.40;99.90
59857;DHT22;45733;52.668;6.860;2023-10-08T02:30:27;14.70;99.90
59857;DHT22;45733;52.668;6.860;2023-10-08T02:32:56;14.70;99.90
59857;DHT22;45733;52.668;6.860;2023-10-08T02:35:29;14.50;99.90
59857;DHT22;45733;52.668;6.860;2023-10-08T02:37:59;14.40;99.90
59857;DHT22;45733;52.668;6.860;2023-10-08T02:43:34;14.70;99.90
59857;DHT22;45733;52.668;6.860;2023-10-08T02:46:06;14.30;99.90
59857;DHT22;45733;52.668;6.860;2023-10-08T02:48:57;14.30;99.90
59857;DHT22;45733;52.668;6.860;2023-10-08T02:51:38;14.60;99.90
59857;DHT22;45733;52.668;6.860;2023-10-08T02:54:11;14.40;99.90
59857;DHT22;45733;52.668;6.860;2023-10-08T02:57:05;14.40;99.90
59857;DHT22;45733;52.668;6.860;2023-10-08T02:59:42;14.40;99.90
59857;DHT22;45733;52.668;6.860;2023-10-08T03:02:20;14.30;99.90
59857;DHT22;45733;52.668;6.860;2023-10-08T03:04:58;14.30;99.90
59857;DHT22;45733;52.668;6.860;2023-10-08T03:07:27;14.50;99.90
59857;DHT22;45733;52.668;6.860;2023-10-08T03:10:07;14.50;99.90
59857;DHT22;45733;52.668;6.860;2023-10-08T03:12:48;14.70;99.90
59857;DHT22;45733;52.668;6.860;2023-10-08T03:15:33;14.40;99.90
59857;DHT22;45733;52.668;6.860;2023-10-08T03:18:33;14.60;99.90
59857;DHT22;45733;52.668;6.860;2023-10-08T03:21:27;14.30;99.90
59857;DHT22;45733;52.668;6.860;2023-10-08T03:24:11;14.30;99.90
59857;DHT22;45733;52.668;6.860;2023-10-08T03:27:02;14.60;99.90
59857;DHT22;45733;52.668;6.860;2023-10-08T03:29:49;14.50;99.90
59857;DHT22;45733;52.668;6.860;2023-10-08T03:32:22;14.60;99.90
59857;DHT22;45733;52.668;6.860;2023-10-08T03:34:58;14.60;99.90
59857;DHT22;45733;52.668;6.860;2023-10-08T03:37:30;14.40;99.90
59857;DHT22;45733;52.668;6.860;2023-10-08T03:40:12;14.10;99.90
59857;DHT22;45733;52.668;6.860;2023-10-08T03:43:02;14.30;99.90
59857;DHT22;45733;52.668;6.860;2023-10-08T03:45:41;14.40;99.90
59857;DHT22;45733;52.668;6.860;2023-10-08T03:48:37;14.20;99.90
59857;DHT22;45733;52.668;6.860;2023-10-08T03:51:07;14.10;99.90
59857;DHT22;45733;52.668;6.860;2023-10-08T03:53:51;14.10;99.90
59857;DHT22;45733;52.668;6.860;2023-10-08T03:56:47;14.50;99.90
59857;DHT22;45733;52.668;6.860;2023-10-08T03:59:20;14.30;99.90
59857;DHT22;45733;52.668;6.860;2023-10-08T04:02:11;14.40;99.90
59857;DHT22;45733;52.668;6.860;2023-10-08T04:05:02;14.40;99.90
59857;DHT22;45733;52.668;6.860;2023-10-08T04:07:50;14.50;99.90
59857;DHT22;45733;52.668;6.860;2023-10-08T04:10:32;14.50;99.90
59857;DHT22;45733;52.668;6.860;2023-10-08T04:13:35;14.20;99.90
59857;DHT22;45733;52.668;6.860;2023-10-08T04:16:12;14.20;99.90
59857;DHT22;45733;52.668;6.860;2023-10-08T04:18:56;14.00;99.90
59857;DHT22;45733;52.668;6.860;2023-10-08T04:21:25;14.20;99.90
59857;DHT22;45733;52.668;6.860;2023-10-08T04:24:11;14.10;99.90
59857;DHT22;45733;52.668;6.860;2023-10-08T04:26:40;14.20;99.90
59857;DHT22;45733;52.668;6.860;2023-10-08T04:29:12;14.20;99.90
59857;DHT22;45733;52.668;6.860;2023-10-08T04:31:48;14.10;99.90
59857;DHT22;45733;52.668;6.860;2023-10-08T04:34:36;14.40;99.90
59857;DHT22;45733;52.668;6.860;2023-10-08T04:37:07;14.10;99.90
59857;DHT22;45733;52.668;6.860;2023-10-08T04:39:50;14.50;99.90
59857;DHT22;45733;52.668;6.860;2023-10-08T04:42:32;14.10;99.90
59857;DHT22;45733;52.668;6.860;2023-10-08T04:45:10;14.10;99.90
59857;DHT22;45733;52.668;6.860;2023-10-08T04:47:50;14.40;99.90
59857;DHT22;45733;52.668;6.860;2023-10-08T04:50:19;14.30;99.90
59857;DHT22;45733;52.668;6.860;2023-10-08T04:52:59;14.20;99.90
59857;DHT22;45733;52.668;6.860;2023-10-08T04:55:43;14.20;99.90
59857;DHT22;45733;52.668;6.860;2023-10-08T04:58:16;14.20;99.90
59857;DHT22;45733;52.668;6.860;2023-10-08T05:00:57;14.10;99.90
59857;DHT22;45733;52.668;6.860;2023-10-08T05:03:52;14.10;99.90
59857;DHT22;45733;52.668;6.860;2023-10-08T05:06:32;14.40;99.90
59857;DHT22;45733;52.668;6.860;2023-10-08T05:09:27;14.20;99.90
59857;DHT22;45733;52.668;6.860;2023-10-08T05:12:17;14.40;99.90
59857;DHT22;45733;52.668;6.860;2023-10-08T05:14:58;14.20;99.90
59857;DHT22;45733;52.668;6.860;2023-10-08T05:17:46;14.30;99.90
59857;DHT22;45733;52.668;6.860;2023-10-08T05:20:21;14.10;99.90
59857;DHT22;45733;52.668;6.860;2023-10-08T05:23:16;14.30;99.90
59857;DHT22;45733;52.668;6.860;2023-10-08T05:26:10;14.40;99.90
59857;DHT22;45733;52.668;6.860;2023-10-08T05:28:49;14.20;99.90
59857;DHT22;45733;52.668;6.860;2023-10-08T05:31:32;14.40;99.90
59857;DHT22;45733;52.668;6.860;2023-10-08T05:37:19;14.10;99.90
59857;DHT22;45733;52.668;6.860;2023-10-08T05:43:37;14.00;99.90
59857;DHT22;45733;52.668;6.860;2023-10-08T05:46:15;14.20;99.90
59857;DHT22;45733;52.668;6.860;2023-10-08T05:49:02;14.30;99.90
59857;DHT22;45733;52.668;6.860;2023-10-08T05:51:40;14.10;99.90
59857;DHT22;45733;52.668;6.860;2023-10-08T05:54:28;14.00;99.90
59857;DHT22;45733;52.668;6.860;2023-10-08T05:57:26;14.00;99.90
59857;DHT22;45733;52.668;6.860;2023-10-08T06:00:16;14.00;99.90
59857;DHT22;45733;52.668;6.860;2023-10-08T06:03:08;14.00;99.90
59857;DHT22;45733;52.668;6.860;2023-10-08T06:06:16;14.20;99.90
59857;DHT22;45733;52.668;6.860;2023-10-08T06:08:45;14.20;99.90
59857;DHT22;45733;52.668;6.860;2023-10-08T06:11:39;14.00;99.90
59857;DHT22;45733;52.668;6.860;2023-10-08T06:14:27;14.40;99.90
59857;DHT22;45733;52.668;6.860;2023-10-08T06:17:15;14.20;99.90
59857;DHT22;45733;52.668;6.860;2023-10-08T06:20:19;14.30;99.90
59857;DHT22;45733;52.668;6.860;2023-10-08T06:22:53;13.80;99.90
59857;DHT22;45733;52.668;6.860;2023-10-08T06:25:27;13.90;99.90
59857;DHT22;45733;52.668;6.860;2023-10-08T06:27:59;14.20;99.90
59857;DHT22;45733;52.668;6.860;2023-10-08T06:30:28;14.20;99.90
59857;DHT22;45733;52.668;6.860;2023-10-08T06:33:12;14.50;99.90
59857;DHT22;45733;52.668;6.860;2023-10-08T06:35:54;14.30;99.90
59857;DHT22;45733;52.668;6.860;2023-10-08T06:38:51;14.30;99.90
59857;DHT22;45733;52.668;6.860;2023-10-08T06:41:20;14.30;99.90
59857;DHT22;45733;52.668;6.860;2023-10-08T06:44:03;14.20;99.90
59857;DHT22;45733;52.668;6.860;2023-10-08T06:46:32;14.40;99.90
59857;DHT22;45733;52.668;6.860;2023-10-08T06:49:08;14.50;99.90
59857;DHT22;45733;52.668;6.860;2023-10-08T06:51:46;14.40;99.90
59857;DHT22;45733;52.668;6.860;2023-10-08T06:54:14;14.20;99.90
59857;DHT22;45733;52.668;6.860;2023-10-08T06:56:51;14.60;99.90
59857;DHT22;45733;52.668;6.860;2023-10-08T06:59:22;14.50;99.90
59857;DHT22;45733;52.668;6.860;2023-10-08T07:01:55;14.40;99.90
59857;DHT22;45733;52.668;6.860;2023-10-08T07:04:20;14.80;99.90
59857;DHT22;45733;52.668;6.860;2023-10-08T07:07:38;14.70;99.90
59857;DHT22;45733;52.668;6.860;2023-10-08T07:09:47;14.60;99.90
59857;DHT22;45733;52.668;6.860;2023-10-08T07:12:25;14.70;99.90
59857;DHT22;45733;52.668;6.860;2023-10-08T07:14:54;14.70;99.90
59857;DHT22;45733;52.668;6.860;2023-10-08T07:17:25;14.80;99.90
59857;DHT22;45733;52.668;6.860;2023-10-08T07:19:56;14.80;99.90
59857;DHT22;45733;52.668;6.860;2023-10-08T07:22:26;14.80;99.90
59857;DHT22;45733;52.668;6.860;2023-10-08T07:25:00;14.60;99.90
59857;DHT22;45733;52.668;6.860;2023-10-08T07:27:32;14.50;99.90
59857;DHT22;45733;52.668;6.860;2023-10-08T07:30:30;14.60;99.90
59857;DHT22;45733;52.668;6.860;2023-10-08T07:33:04;14.80;99.90
59857;DHT22;45733;52.668;6.860;2023-10-08T07:35:37;14.80;99.90
59857;DHT22;45733;52.668;6.860;2023-10-08T07:38:35;15.00;99.90
59857;DHT22;45733;52.668;6.860;2023-10-08T07:41:00;15.10;99.90
59857;DHT22;45733;52.668;6.860;2023-10-08T07:43:26;15.00;99.90
59857;DHT22;45733;52.668;6.860;2023-10-08T07:45:57;15.00;99.90
59857;DHT22;45733;52.668;6.860;2023-10-08T07:48:25;15.20;99.90
59857;DHT22;45733;52.668;6.860;2023-10-08T07:50:58;15.00;99.90
59857;DHT22;45733;52.668;6.860;2023-10-08T07:53:27;15.10;99.90
59857;DHT22;45733;52.668;6.860;2023-10-08T07:56:09;15.00;99.90
59857;DHT22;45733;52.668;6.860;2023-10-08T07:59:01;15.20;99.90
59857;DHT22;45733;52.668;6.860;2023-10-08T08:01:39;14.90;99.90
59857;DHT22;45733;52.668;6.860;2023-10-08T08:04:19;14.90;99.90
59857;DHT22;45733;52.668;6.860;2023-10-08T08:07:01;15.00;99.90
59857;DHT22;45733;52.668;6.860;2023-10-08T08:09:36;15.20;99.90
59857;DHT22;45733;52.668;6.860;2023-10-08T08:12:12;15.30;99.90
59857;DHT22;45733;52.668;6.860;2023-10-08T08:14:41;15.40;99.90
59857;DHT22;45733;52.668;6.860;2023-10-08T08:17:13;15.80;99.90
59857;DHT22;45733;52.668;6.860;2023-10-08T08:19:57;15.90;99.90
59857;DHT22;45733;52.668;6.860;2023-10-08T08:22:29;15.40;99.90
59857;DHT22;45733;52.668;6.860;2023-10-08T08:25:21;15.60;99.90
59857;DHT22;45733;52.668;6.860;2023-10-08T08:28:02;15.80;99.90
59857;DHT22;45733;52.668;6.860;2023-10-08T08:30:31;16.30;99.90
59857;DHT22;45733;52.668;6.860;2023-10-08T08:32:58;16.40;99.90
59857;DHT22;45733;52.668;6.860;2023-10-08T08:35:26;16.30;99.90
59857;DHT22;45733;52.668;6.860;2023-10-08T08:37:52;16.40;99.90
59857;DHT22;45733;52.668;6.860;2023-10-08T08:40:28;16.50;99.90
59857;DHT22;45733;52.668;6.860;2023-10-08T08:42:55;16.40;99.90
59857;DHT22;45733;52.668;6.860;2023-10-08T08:45:24;16.50;99.90
59857;DHT22;45733;52.668;6.860;2023-10-08T08:47:56;16.60;99.90
59857;DHT22;45733;52.668;6.860;2023-10-08T08:50:25;16.50;99.90
59857;DHT22;45733;52.668;6.860;2023-10-08T08:52:52;16.30;99.90
59857;DHT22;45733;52.668;6.860;2023-10-08T08:55:18;16.50;99.90
59857;DHT22;45733;52.668;6.860;2023-10-08T08:57:50;16.50;99.90
59857;DHT22;45733;52.668;6.860;2023-10-08T09:00:20;16.50;99.90
59857;DHT22;45733;52.668;6.860;2023-10-08T09:02:55;16.60;99.90
59857;DHT22;45733;52.668;6.860;2023-10-08T09:05:30;16.70;99.90
59857;DHT22;45733;52.668;6.860;2023-10-08T09:08:06;16.90;99.90
59857;DHT22;45733;52.668;6.860;2023-10-08T09:10:36;16.80;99.90
59857;DHT22;45733;52.668;6.860;2023-10-08T09:13:14;16.90;99.90
59857;DHT22;45733;52.668;6.860;2023-10-08T09:15:43;16.80;99.90
59857;DHT22;45733;52.668;6.860;2023-10-08T09:18:08;16.90;99.90
59857;DHT22;45733;52.668;6.860;2023-10-08T09:20:52;17.10;99.90
59857;DHT22;45733;52.668;6.860;2023-10-08T09:23:21;17.10;99.90
59857;DHT22;45733;52.668;6.860;2023-10-08T09:25:53;17.20;99.90
59857;DHT22;45733;52.668;6.860;2023-10-08T09:28:27;17.20;99.90
59857;DHT22;45733;52.668;6.860;2023-10-08T09:30:54;17.10;99.90
59857;DHT22;45733;52.668;6.860;2023-10-08T09:33:24;17.30;99.90
59857;DHT22;45733;52.668;6.860;2023-10-08T09:35:51;17.10;99.90
59857;DHT22;45733;52.668;6.860;2023-10-08T09:38:21;17.20;99.90
59857;DHT22;45733;52.668;6.860;2023-10-08T09:40:49;17.20;99.90
59857;DHT22;45733;52.668;6.860;2023-10-08T09:43:16;17.30;99.90
59857;DHT22;45733;52.668;6.860;2023-10-08T09:45:46;17.00;99.90
59857;DHT22;45733;52.668;6.860;2023-10-08T09:48:16;16.60;99.90
59857;DHT22;45733;52.668;6.860;2023-10-08T09:50:43;16.60;99.90
59857;DHT22;45733;52.668;6.860;2023-10-08T09:53:13;16.50;99.90
59857;DHT22;45733;52.668;6.860;2023-10-08T09:55:46;16.40;99.90
59857;DHT22;45733;52.668;6.860;2023-10-08T09:58:15;16.60;99.90
59857;DHT22;45733;52.668;6.860;2023-10-08T10:00:43;16.50;99.90
59857;DHT22;45733;52.668;6.860;2023-10-08T10:03:10;16.80;99.90
59857;DHT22;45733;52.668;6.860;2023-10-08T10:05:37;16.60;99.90
59857;DHT22;45733;52.668;6.860;2023-10-08T10:08:04;16.50;99.90
59857;DHT22;45733;52.668;6.860;2023-10-08T10:10:37;16.90;99.90
59857;DHT22;45733;52.668;6.860;2023-10-08T10:13:10;17.20;99.90
59857;DHT22;45733;52.668;6.860;2023-10-08T10:15:36;17.30;99.90
59857;DHT22;45733;52.668;6.860;2023-10-08T10:20:59;17.60;99.90
59857;DHT22;45733;52.668;6.860;2023-10-08T10:26:28;17.90;99.90
59857;DHT22;45733;52.668;6.860;2023-10-08T10:31:51;18.30;99.90
59857;DHT22;45733;52.668;6.860;2023-10-08T10:34:24;17.80;99.90
59857;DHT22;45733;52.668;6.860;2023-10-08T10:36:58;18.40;99.90
59857;DHT22;45733;52.668;6.860;2023-10-08T10:39:34;18.40;99.90
59857;DHT22;45733;52.668;6.860;2023-10-08T10:42:05;18.00;99.90
59857;DHT22;45733;52.668;6.860;2023-10-08T10:44:46;18.00;99.90
59857;DHT22;45733;52.668;6.860;2023-10-08T10:47:16;18.00;99.90
59857;DHT22;45733;52.668;6.860;2023-10-08T10:49:43;18.10;99.90
59857;DHT22;45733;52.668;6.860;2023-10-08T10:52:27;18.20;99.90
59857;DHT22;45733;52.668;6.860;2023-10-08T10:55:17;17.80;99.90
59857;DHT22;45733;52.668;6.860;2023-10-08T10:57:55;17.60;99.90
59857;DHT22;45733;52.668;6.860;2023-10-08T11:00:26;17.50;99.90
59857;DHT22;45733;52.668;6.860;2023-10-08T11:03:01;17.10;99.90
59857;DHT22;45733;52.668;6.860;2023-10-08T11:05:43;17.10;99.90
59857;DHT22;45733;52.668;6.860;2023-10-08T11:08:14;17.80;99.90
59857;DHT22;45733;52.668;6.860;2023-10-08T11:10:42;17.70;99.90
59857;DHT22;45733;52.668;6.860;2023-10-08T11:13:15;18.00;99.90
59857;DHT22;45733;52.668;6.860;2023-10-08T11:15:46;18.10;99.90
59857;DHT22;45733;52.668;6.860;2023-10-08T11:18:17;17.60;99.90
59857;DHT22;45733;52.668;6.860;2023-10-08T11:20:44;17.60;99.90
59857;DHT22;45733;52.668;6.860;2023-10-08T11:23:32;17.90;99.90
59857;DHT22;45733;52.668;6.860;2023-10-08T11:26:05;18.00;99.90
59857;DHT22;45733;52.668;6.860;2023-10-08T11:28:33;18.00;99.90
59857;DHT22;45733;52.668;6.860;2023-10-08T11:31:04;18.00;99.90
59857;DHT22;45733;52.668;6.860;2023-10-08T11:33:44;18.00;99.90
59857;DHT22;45733;52.668;6.860;2023-10-08T11:36:22;18.00;99.90
59857;DHT22;45733;52.668;6.860;2023-10-08T11:38:57;18.20;99.90
59857;DHT22;45733;52.668;6.860;2023-10-08T11:41:32;18.60;99.90
59857;DHT22;45733;52.668;6.860;2023-10-08T11:44:15;19.20;99.90
59857;DHT22;45733;52.668;6.860;2023-10-08T11:46:46;19.10;99.90
59857;DHT22;45733;52.668;6.860;2023-10-08T11:49:19;18.80;99.90
59857;DHT22;45733;52.668;6.860;2023-10-08T11:51:50;19.00;99.90
59857;DHT22;45733;52.668;6.860;2023-10-08T11:54:17;19.10;99.90
59857;DHT22;45733;52.668;6.860;2023-10-08T11:56:45;18.80;99.90
59857;DHT22;45733;52.668;6.860;2023-10-08T11:59:12;19.50;99.90
59857;DHT22;45733;52.668;6.860;2023-10-08T12:01:39;19.80;99.90
59857;DHT22;45733;52.668;6.860;2023-10-08T12:04:08;18.20;99.90
59857;DHT22;45733;52.668;6.860;2023-10-08T12:06:42;18.70;99.90
59857;DHT22;45733;52.668;6.860;2023-10-08T12:09:18;18.20;99.90
59857;DHT22;45733;52.668;6.860;2023-10-08T12:11:47;18.50;99.90
59857;DHT22;45733;52.668;6.860;2023-10-08T12:14:13;18.90;99.90
59857;DHT22;45733;52.668;6.860;2023-10-08T12:16:40;19.10;99.90
59857;DHT22;45733;52.668;6.860;2023-10-08T12:19:07;18.90;99.90
59857;DHT22;45733;52.668;6.860;2023-10-08T12:21:42;18.50;99.90
59857;DHT22;45733;52.668;6.860;2023-10-08T12:24:08;18.60;99.90
59857;DHT22;45733;52.668;6.860;2023-10-08T12:26:40;19.20;99.90
59857;DHT22;45733;52.668;6.860;2023-10-08T12:29:13;19.30;99.90
59857;DHT22;45733;52.668;6.860;2023-10-08T12:31:47;19.40;99.90
59857;DHT22;45733;52.668;6.860;2023-10-08T12:34:16;19.60;99.90
59857;DHT22;45733;52.668;6.860;2023-10-08T12:36:42;19.70;99.90
59857;DHT22;45733;52.668;6.860;2023-10-08T12:39:08;19.20;99.90
59857;DHT22;45733;52.668;6.860;2023-10-08T12:41:43;19.40;99.90
59857;DHT22;45733;52.668;6.860;2023-10-08T12:44:10;19.60;99.90
59857;DHT22;45733;52.668;6.860;2023-10-08T12:46:36;19.00;99.90
59857;DHT22;45733;52.668;6.860;2023-10-08T12:49:02;19.40;99.90
59857;DHT22;45733;52.668;6.860;2023-10-08T12:51:29;19.10;99.90
59857;DHT22;45733;52.668;6.860;2023-10-08T12:53:59;19.50;99.90
59857;DHT22;45733;52.668;6.860;2023-10-08T12:56:38;19.30;99.90
59857;DHT22;45733;52.668;6.860;2023-10-08T12:59:10;19.30;99.90
59857;DHT22;45733;52.668;6.860;2023-10-08T13:01:46;19.20;99.90
59857;DHT22;45733;52.668;6.860;2023-10-08T13:04:19;19.20;99.90
59857;DHT22;45733;52.668;6.860;2023-10-08T13:06:55;19.60;99.90
59857;DHT22;45733;52.668;6.860;2023-10-08T13:09:26;20.00;99.90
59857;DHT22;45733;52.668;6.860;2023-10-08T13:11:51;19.80;99.90
59857;DHT22;45733;52.668;6.860;2023-10-08T13:14:17;19.70;99.90
59857;DHT22;45733;52.668;6.860;2023-10-08T13:16:43;19.70;99.90
59857;DHT22;45733;52.668;6.860;2023-10-08T13:19:10;19.50;99.90
59857;DHT22;45733;52.668;6.860;2023-10-08T13:21:36;19.20;99.90
59857;DHT22;45733;52.668;6.860;2023-10-08T13:24:02;19.20;99.90
59857;DHT22;45733;52.668;6.860;2023-10-08T13:26:33;19.40;99.90
59857;DHT22;45733;52.668;6.860;2023-10-08T13:29:11;19.60;99.90
59857;DHT22;45733;52.668;6.860;2023-10-08T13:31:36;19.20;99.90
59857;DHT22;45733;52.668;6.860;2023-10-08T13:34:05;19.30;99.90
59857;DHT22;45733;52.668;6.860;2023-10-08T13:36:38;19.40;99.90
59857;DHT22;45733;52.668;6.860;2023-10-08T13:39:07;19.40;99.90
59857;DHT22;45733;52.668;6.860;2023-10-08T13:41:36;19.20;99.90
59857;DHT22;45733;52.668;6.860;2023-10-08T13:44:03;18.90;99.90
59857;DHT22;45733;52.668;6.860;2023-10-08T13:46:31;18.90;99.90
59857;DHT22;45733;52.668;6.860;2023-10-08T13:49:01;18.60;99.90
59857;DHT22;45733;52.668;6.860;2023-10-08T13:51:27;18.40;99.90
59857;DHT22;45733;52.668;6.860;2023-10-08T13:53:54;18.30;99.90
59857;DHT22;45733;52.668;6.860;2023-10-08T13:56:25;18.20;99.90
59857;DHT22;45733;52.668;6.860;2023-10-08T13:58:55;18.30;99.90
59857;DHT22;45733;52.668;6.860;2023-10-08T14:01:30;18.30;99.90
59857;DHT22;45733;52.668;6.860;2023-10-08T14:03:59;18.00;99.90
59857;DHT22;45733;52.668;6.860;2023-10-08T14:06:30;18.10;99.90
59857;DHT22;45733;52.668;6.860;2023-10-08T14:08:57;18.10;99.90
59857;DHT22;45733;52.668;6.860;2023-10-08T14:11:22;18.30;99.90
59857;DHT22;45733;52.668;6.860;2023-10-08T14:13:59;18.20;99.90
59857;DHT22;45733;52.668;6.860;2023-10-08T14:16:28;18.40;99.90
59857;DHT22;45733;52.668;6.860;2023-10-08T14:18:55;18.20;99.90
59857;DHT22;45733;52.668;6.860;2023-10-08T14:21:25;18.30;99.90
59857;DHT22;45733;52.668;6.860;2023-10-08T14:23:56;18.20;99.90
59857;DHT22;45733;52.668;6.860;2023-10-08T14:26:31;18.30;99.90
59857;DHT22;45733;52.668;6.860;2023-10-08T14:29:03;18.10;99.90
59857;DHT22;45733;52.668;6.860;2023-10-08T14:31:42;18.00;99.90
59857;DHT22;45733;52.668;6.860;2023-10-08T14:34:10;18.00;99.90
59857;DHT22;45733;52.668;6.860;2023-10-08T14:36:45;18.10;99.90
59857;DHT22;45733;52.668;6.860;2023-10-08T14:39:30;18.00;99.90
59857;DHT22;45733;52.668;6.860;2023-10-08T14:42:14;18.00;99.90
59857;DHT22;45733;52.668;6.860;2023-10-08T14:44:58;18.10;99.90
59857;DHT22;45733;52.668;6.860;2023-10-08T14:47:26;18.10;99.90
59857;DHT22;45733;52.668;6.860;2023-10-08T14:49:51;18.10;99.90
59857;DHT22;45733;52.668;6.860;2023-10-08T14:52:17;17.90;99.90
59857;DHT22;45733;52.668;6.860;2023-10-08T14:54:44;17.80;99.90
59857;DHT22;45733;52.668;6.860;2023-10-08T14:57:11;17.80;99.90
59857;DHT22;45733;52.668;6.860;2023-10-08T14:59:40;17.70;99.90
59857;DHT22;45733;52.668;6.860;2023-10-08T15:02:07;17.60;99.90
59857;DHT22;45733;52.668;6.860;2023-10-08T15:04:33;17.40;99.90
59857;DHT22;45733;52.668;6.860;2023-10-08T15:07:01;17.40;99.90
59857;DHT22;45733;52.668;6.860;2023-10-08T15:09:27;17.40;99.90
59857;DHT22;45733;52.668;6.860;2023-10-08T15:11:53;17.40;99.90
59857;DHT22;45733;52.668;6.860;2023-10-08T15:14:19;17.30;99.90
59857;DHT22;45733;52.668;6.860;2023-10-08T15:16:46;17.40;99.90
59857;DHT22;45733;52.668;6.860;2023-10-08T15:19:19;17.30;99.90
59857;DHT22;45733;52.668;6.860;2023-10-08T15:21:44;17.20;99.90
59857;DHT22;45733;52.668;6.860;2023-10-08T15:24:24;17.30;99.90
59857;DHT22;45733;52.668;6.860;2023-10-08T15:26:54;17.30;99.90
59857;DHT22;45733;52.668;6.860;2023-10-08T15:29:23;17.10;99.90
59857;DHT22;45733;52.668;6.860;2023-10-08T15:31:53;17.10;99.90
59857;DHT22;45733;52.668;6.860;2023-10-08T15:34:23;17.00;99.90
59857;DHT22;45733;52.668;6.860;2023-10-08T15:36:50;16.90;99.90
59857;DHT22;45733;52.668;6.860;2023-10-08T15:39:17;16.90;99.90
59857;DHT22;45733;52.668;6.860;2023-10-08T15:41:51;17.00;99.90
59857;DHT22;45733;52.668;6.860;2023-10-08T15:44:20;17.10;99.90
59857;DHT22;45733;52.668;6.860;2023-10-08T15:46:51;17.10;99.90
59857;DHT22;45733;52.668;6.860;2023-10-08T15:49:17;17.20;99.90
59857;DHT22;45733;52.668;6.860;2023-10-08T15:51:47;17.20;99.90
59857;DHT22;45733;52.668;6.860;2023-10-08T15:54:13;17.10;99.90
59857;DHT22;45733;52.668;6.860;2023-10-08T15:56:39;17.00;99.90
59857;DHT22;45733;52.668;6.860;2023-10-08T15:59:04;16.90;99.90
59857;DHT22;45733;52.668;6.860;2023-10-08T16:01:30;16.90;99.90
59857;DHT22;45733;52.668;6.860;2023-10-08T16:03:56;16.90;99.90
59857;DHT22;45733;52.668;6.860;2023-10-08T16:06:22;16.90;99.90
59857;DHT22;45733;52.668;6.860;2023-10-08T16:08:48;16.70;99.90
59857;DHT22;45733;52.668;6.860;2023-10-08T16:11:14;16.60;99.90
59857;DHT22;45733;52.668;6.860;2023-10-08T16:13:40;16.40;99.90
59857;DHT22;45733;52.668;6.860;2023-10-08T16:16:08;16.30;99.90
59857;DHT22;45733;52.668;6.860;2023-10-08T16:18:35;16.20;99.90
59857;DHT22;45733;52.668;6.860;2023-10-08T16:21:01;16.10;99.90
59857;DHT22;45733;52.668;6.860;2023-10-08T16:23:26;16.00;99.90
59857;DHT22;45733;52.668;6.860;2023-10-08T16:25:55;15.80;99.90
59857;DHT22;45733;52.668;6.860;2023-10-08T16:28:24;15.80;99.90
59857;DHT22;45733;52.668;6.860;2023-10-08T16:30:49;15.70;99.90
59857;DHT22;45733;52.668;6.860;2023-10-08T16:33:20;15.50;99.90
59857;DHT22;45733;52.668;6.860;2023-10-08T16:35:49;15.40;99.90
59857;DHT22;45733;52.668;6.860;2023-10-08T16:38:18;15.30;99.90
59857;DHT22;45733;52.668;6.860;2023-10-08T16:40:44;15.30;99.90
59857;DHT22;45733;52.668;6.860;2023-10-08T16:43:10;15.30;99.90
59857;DHT22;45733;52.668;6.860;2023-10-08T16:45:40;15.40;99.90